sensor_id;sensor_type;location;lat;lon;timestamp;temperature;humidity
29453;DHT22;16424;50.956;5.320;2022-09-28T00:01:18;10.70;99.90
29453;DHT22;16424;50.956;5.320;2022-09-28T00:03:45;10.70;99.90
29453;DHT22;16424;50.956;5.320;2022-09-28T00:06:13;10.80;99.90
29453;DHT22;16424;50.956;5.320;2022-09-28T00:08:40;10.70;99.90
29453;DHT22;16424;50.956;5.320;2022-09-28T00:11:07;10.60;99.90
29453;DHT22;16424;50.956;5.320;2022-09-28T00:13:37;10.60;99.90
29453;DHT22;16424;50.956;5.320;2022-09-28T00:16:09;10.70;99.90
29453;DHT22;16424;50.956;5.320;2022-09-28T00:18:35;10.80;99.90
29453;DHT22;16424;50.956;5.320;2022-09-28T00:21:04;10.80;99.90
29453;DHT22;16424;50.956;5.320;2022-09-28T00:23:31;10.80;99.90
29453;DHT22;16424;50.956;5.320;2022-09-28T00:26:03;10.70;99.90
29453;DHT22;16424;50.956;5.320;2022-09-28T00:28:29;10.70;99.90
29453;DHT22;16424;50.956;5.320;2022-09-28T00:30:56;10.60;99.90
29453;DHT22;16424;50.956;5.320;2022-09-28T00:33:21;10.60;99.90
29453;DHT22;16424;50.956;5.320;2022-09-28T00:35:54;10.80;99.90
29453;DHT22;16424;50.956;5.320;2022-09-28T00:38:20;10.70;99.90
29453;DHT22;16424;50.956;5.320;2022-09-28T00:40:46;10.70;99.90
29453;DHT22;16424;50.956;5.320;2022-09-28T00:43:19;10.70;99.90
29453;DHT22;16424;50.956;5.320;2022-09-28T00:45:57;10.60;99.90
29453;DHT22;16424;50.956;5.320;2022-09-28T00:48:26;10.70;99.90
29453;DHT22;16424;50.956;5.320;2022-09-28T00:50:54;10.70;99.90
29453;DHT22;16424;50.956;5.320;2022-09-28T00:53:31;10.70;99.90
29453;DHT22;16424;50.956;5.320;2022-09-28T00:56:05;10.60;99.90
29453;DHT22;16424;50.956;5.320;2022-09-28T00:58:35;10.60;99.90
29453;DHT22;16424;50.956;5.320;2022-09-28T01:01:02;10.70;99.90
29453;DHT22;16424;50.956;5.320;2022-09-28T01:03:29;10.80;99.90
29453;DHT22;16424;50.956;5.320;2022-09-28T01:05:57;10.70;99.90
29453;DHT22;16424;50.956;5.320;2022-09-28T01:08:24;10.70;99.90
29453;DHT22;16424;50.956;5.320;2022-09-28T01:10:54;10.70;99.90
29453;DHT22;16424;50.956;5.320;2022-09-28T01:13:21;10.40;99.90
29453;DHT22;16424;50.956;5.320;2022-09-28T01:21:44;10.50;99.90
29453;DHT22;16424;50.956;5.320;2022-09-28T01:29:45;10.50;99.90
29453;DHT22;16424;50.956;5.320;2022-09-28T01:35:02;10.40;99.90
29453;DHT22;16424;50.956;5.320;2022-09-28T01:38:01;10.40;99.90
29453;DHT22;16424;50.956;5.320;2022-09-28T01:40:31;10.50;99.90
29453;DHT22;16424;50.956;5.320;2022-09-28T01:43:06;10.30;99.90
29453;DHT22;16424;50.956;5.320;2022-09-28T01:45:39;10.30;99.90
29453;DHT22;16424;50.956;5.320;2022-09-28T01:48:07;10.40;99.90
29453;DHT22;16424;50.956;5.320;2022-09-28T01:50:40;10.40;99.90
29453;DHT22;16424;50.956;5.320;2022-09-28T01:55:50;10.20;99.90
29453;DHT22;16424;50.956;5.320;2022-09-28T01:58:23;10.20;99.90
29453;DHT22;16424;50.956;5.320;2022-09-28T02:00:55;10.20;99.90
29453;DHT22;16424;50.956;5.320;2022-09-28T02:03:30;10.20;99.90
29453;DHT22;16424;50.956;5.320;2022-09-28T02:06:11;10.30;99.90
29453;DHT22;16424;50.956;5.320;2022-09-28T02:08:47;10.10;99.90
29453;DHT22;16424;50.956;5.320;2022-09-28T02:11:19;10.10;99.90
29453;DHT22;16424;50.956;5.320;2022-09-28T02:13:59;10.10;99.90
29453;DHT22;16424;50.956;5.320;2022-09-28T02:16:39;10.10;99.90
29453;DHT22;16424;50.956;5.320;2022-09-28T02:19:13;10.10;99.90
29453;DHT22;16424;50.956;5.320;2022-09-28T02:27:37;10.10;99.90
29453;DHT22;16424;50.956;5.320;2022-09-28T02:30:05;10.10;99.90
29453;DHT22;16424;50.956;5.320;2022-09-28T02:32:35;10.00;99.90
29453;DHT22;16424;50.956;5.320;2022-09-28T02:35:07;10.00;99.90
29453;DHT22;16424;50.956;5.320;2022-09-28T02:37:33;9.90;99.90
29453;DHT22;16424;50.956;5.320;2022-09-28T02:39:59;9.90;99.90
29453;DHT22;16424;50.956;5.320;2022-09-28T02:42:45;9.80;99.90
29453;DHT22;16424;50.956;5.320;2022-09-28T02:45:38;9.90;99.90
29453;DHT22;16424;50.956;5.320;2022-09-28T02:51:20;10.00;99.90
29453;DHT22;16424;50.956;5.320;2022-09-28T02:56:59;9.90;99.90
29453;DHT22;16424;50.956;5.320;2022-09-28T03:02:21;9.90;99.90
29453;DHT22;16424;50.956;5.320;2022-09-28T03:07:38;10.00;99.90
29453;DHT22;16424;50.956;5.320;2022-09-28T03:10:12;10.10;99.90
29453;DHT22;16424;50.956;5.320;2022-09-28T03:12:43;10.10;99.90
29453;DHT22;16424;50.956;5.320;2022-09-28T03:15:24;10.10;99.90
29453;DHT22;16424;50.956;5.320;2022-09-28T03:17:51;10.10;99.90
29453;DHT22;16424;50.956;5.320;2022-09-28T03:20:16;10.30;99.90
29453;DHT22;16424;50.956;5.320;2022-09-28T03:22:42;10.30;99.90
29453;DHT22;16424;50.956;5.320;2022-09-28T03:25:08;10.20;99.90
29453;DHT22;16424;50.956;5.320;2022-09-28T03:27:34;10.20;99.90
29453;DHT22;16424;50.956;5.320;2022-09-28T03:30:00;10.40;99.90
29453;DHT22;16424;50.956;5.320;2022-09-28T03:32:26;10.20;99.90
29453;DHT22;16424;50.956;5.320;2022-09-28T03:34:52;10.20;99.90
29453;DHT22;16424;50.956;5.320;2022-09-28T03:37:17;10.30;99.90
29453;DHT22;16424;50.956;5.320;2022-09-28T03:39:43;10.30;99.90
29453;DHT22;16424;50.956;5.320;2022-09-28T03:42:08;10.30;99.90
29453;DHT22;16424;50.956;5.320;2022-09-28T03:44:34;10.30;99.90
29453;DHT22;16424;50.956;5.320;2022-09-28T03:46:59;10.30;99.90
29453;DHT22;16424;50.956;5.320;2022-09-28T03:49:25;10.20;99.90
29453;DHT22;16424;50.956;5.320;2022-09-28T03:51:51;10.20;99.90
29453;DHT22;16424;50.956;5.320;2022-09-28T03:54:16;10.20;99.90
29453;DHT22;16424;50.956;5.320;2022-09-28T03:56:43;10.00;99.90
29453;DHT22;16424;50.956;5.320;2022-09-28T03:59:08;10.20;99.90
29453;DHT22;16424;50.956;5.320;2022-09-28T04:01:34;10.10;99.90
29453;DHT22;16424;50.956;5.320;2022-09-28T04:04:00;10.00;99.90
29453;DHT22;16424;50.956;5.320;2022-09-28T04:06:26;10.00;99.90
29453;DHT22;16424;50.956;5.320;2022-09-28T04:08:51;10.10;99.90
29453;DHT22;16424;50.956;5.320;2022-09-28T04:11:17;10.10;99.90
29453;DHT22;16424;50.956;5.320;2022-09-28T04:13:43;10.10;99.90
29453;DHT22;16424;50.956;5.320;2022-09-28T04:16:11;10.10;99.90
29453;DHT22;16424;50.956;5.320;2022-09-28T04:18:37;10.10;99.90
29453;DHT22;16424;50.956;5.320;2022-09-28T04:21:06;10.00;99.90
29453;DHT22;16424;50.956;5.320;2022-09-28T04:23:36;10.00;99.90
29453;DHT22;16424;50.956;5.320;2022-09-28T04:26:04;9.90;99.90
29453;DHT22;16424;50.956;5.320;2022-09-28T04:28:30;9.90;99.90
29453;DHT22;16424;50.956;5.320;2022-09-28T04:31:19;10.00;99.90
29453;DHT22;16424;50.956;5.320;2022-09-28T04:33:45;10.00;99.90
29453;DHT22;16424;50.956;5.320;2022-09-28T04:36:11;9.90;99.90
29453;DHT22;16424;50.956;5.320;2022-09-28T04:38:37;10.00;99.90
29453;DHT22;16424;50.956;5.320;2022-09-28T04:41:03;9.90;99.90
29453;DHT22;16424;50.956;5.320;2022-09-28T04:43:30;9.90;99.90
29453;DHT22;16424;50.956;5.320;2022-09-28T04:46:00;9.90;99.90
29453;DHT22;16424;50.956;5.320;2022-09-28T04:48:27;9.90;99.90
29453;DHT22;16424;50.956;5.320;2022-09-28T04:50:57;9.90;99.90
29453;DHT22;16424;50.956;5.320;2022-09-28T04:53:24;9.80;99.90
29453;DHT22;16424;50.956;5.320;2022-09-28T04:56:01;9.70;99.90
29453;DHT22;16424;50.956;5.320;2022-09-28T04:58:28;9.80;99.90
29453;DHT22;16424;50.956;5.320;2022-09-28T05:00:57;9.70;99.90
29453;DHT22;16424;50.956;5.320;2022-09-28T05:03:23;9.70;99.90
29453;DHT22;16424;50.956;5.320;2022-09-28T05:05:49;9.70;99.90
29453;DHT22;16424;50.956;5.320;2022-09-28T05:08:15;9.50;99.90
29453;DHT22;16424;50.956;5.320;2022-09-28T05:10:41;9.50;99.90
29453;DHT22;16424;50.956;5.320;2022-09-28T05:13:08;9.40;99.90
29453;DHT22;16424;50.956;5.320;2022-09-28T05:15:34;9.50;99.90
29453;DHT22;16424;50.956;5.320;2022-09-28T05:18:00;9.50;99.90
29453;DHT22;16424;50.956;5.320;2022-09-28T05:20:26;9.50;99.90
29453;DHT22;16424;50.956;5.320;2022-09-28T05:22:52;9.50;99.90
29453;DHT22;16424;50.956;5.320;2022-09-28T05:25:18;9.40;99.90
29453;DHT22;16424;50.956;5.320;2022-09-28T05:27:44;9.40;99.90
29453;DHT22;16424;50.956;5.320;2022-09-28T05:30:10;9.40;99.90
29453;DHT22;16424;50.956;5.320;2022-09-28T05:32:42;9.40;99.90
29453;DHT22;16424;50.956;5.320;2022-09-28T05:35:09;9.40;99.90
29453;DHT22;16424;50.956;5.320;2022-09-28T05:37:36;9.40;99.90
29453;DHT22;16424;50.956;5.320;2022-09-28T05:40:02;9.50;99.90
29453;DHT22;16424;50.956;5.320;2022-09-28T05:42:29;9.50;99.90
29453;DHT22;16424;50.956;5.320;2022-09-28T05:44:55;9.50;99.90
29453;DHT22;16424;50.956;5.320;2022-09-28T05:47:22;9.50;99.90
29453;DHT22;16424;50.956;5.320;2022-09-28T05:49:48;9.60;99.90
29453;DHT22;16424;50.956;5.320;2022-09-28T05:52:13;9.50;99.90
29453;DHT22;16424;50.956;5.320;2022-09-28T05:54:39;9.40;99.90
29453;DHT22;16424;50.956;5.320;2022-09-28T05:57:05;9.40;99.90
29453;DHT22;16424;50.956;5.320;2022-09-28T05:59:31;9.40;99.90
29453;DHT22;16424;50.956;5.320;2022-09-28T06:01:59;9.40;99.90
29453;DHT22;16424;50.956;5.320;2022-09-28T06:04:25;9.50;99.90
29453;DHT22;16424;50.956;5.320;2022-09-28T06:06:51;9.60;99.90
29453;DHT22;16424;50.956;5.320;2022-09-28T06:09:16;9.60;99.90
29453;DHT22;16424;50.956;5.320;2022-09-28T06:11:42;9.70;99.90
29453;DHT22;16424;50.956;5.320;2022-09-28T06:14:08;9.80;99.90
29453;DHT22;16424;50.956;5.320;2022-09-28T06:16:34;9.80;99.90
29453;DHT22;16424;50.956;5.320;2022-09-28T06:19:00;9.90;99.90
29453;DHT22;16424;50.956;5.320;2022-09-28T06:21:26;10.10;99.90
29453;DHT22;16424;50.956;5.320;2022-09-28T06:23:51;10.30;99.90
29453;DHT22;16424;50.956;5.320;2022-09-28T06:26:17;10.50;99.90
29453;DHT22;16424;50.956;5.320;2022-09-28T06:28:43;11.00;99.90
29453;DHT22;16424;50.956;5.320;2022-09-28T06:31:09;11.70;99.90
29453;DHT22;16424;50.956;5.320;2022-09-28T06:33:34;12.30;99.90
29453;DHT22;16424;50.956;5.320;2022-09-28T06:36:00;12.60;99.90
29453;DHT22;16424;50.956;5.320;2022-09-28T06:38:27;12.50;99.90
29453;DHT22;16424;50.956;5.320;2022-09-28T06:40:52;12.60;99.90
29453;DHT22;16424;50.956;5.320;2022-09-28T06:43:18;13.10;99.90
29453;DHT22;16424;50.956;5.320;2022-09-28T06:45:50;13.60;99.90
29453;DHT22;16424;50.956;5.320;2022-09-28T06:48:16;14.40;99.90
29453;DHT22;16424;50.956;5.320;2022-09-28T06:50:42;14.70;99.90
29453;DHT22;16424;50.956;5.320;2022-09-28T06:53:11;15.40;99.90
29453;DHT22;16424;50.956;5.320;2022-09-28T06:55:44;16.00;99.90
29453;DHT22;16424;50.956;5.320;2022-09-28T06:58:14;16.30;99.90
29453;DHT22;16424;50.956;5.320;2022-09-28T07:00:41;16.10;99.90
29453;DHT22;16424;50.956;5.320;2022-09-28T07:03:11;16.30;99.90
29453;DHT22;16424;50.956;5.320;2022-09-28T07:05:46;16.80;99.90
29453;DHT22;16424;50.956;5.320;2022-09-28T07:08:13;17.30;99.90
29453;DHT22;16424;50.956;5.320;2022-09-28T07:10:44;17.80;99.90
29453;DHT22;16424;50.956;5.320;2022-09-28T07:13:11;18.00;99.90
29453;DHT22;16424;50.956;5.320;2022-09-28T07:15:38;17.70;99.90
29453;DHT22;16424;50.956;5.320;2022-09-28T07:18:05;18.10;99.90
29453;DHT22;16424;50.956;5.320;2022-09-28T07:20:35;18.50;99.90
29453;DHT22;16424;50.956;5.320;2022-09-28T07:23:04;18.50;99.90
29453;DHT22;16424;50.956;5.320;2022-09-28T07:25:31;18.70;99.90
29453;DHT22;16424;50.956;5.320;2022-09-28T07:27:58;19.00;99.90
29453;DHT22;16424;50.956;5.320;2022-09-28T07:30:32;19.20;99.90
29453;DHT22;16424;50.956;5.320;2022-09-28T07:33:03;19.30;99.90
29453;DHT22;16424;50.956;5.320;2022-09-28T07:35:30;19.30;99.90
29453;DHT22;16424;50.956;5.320;2022-09-28T07:38:00;19.60;99.90
29453;DHT22;16424;50.956;5.320;2022-09-28T07:40:27;19.80;99.90
29453;DHT22;16424;50.956;5.320;2022-09-28T07:43:11;18.80;99.90
29453;DHT22;16424;50.956;5.320;2022-09-28T07:45:45;19.20;99.90
29453;DHT22;16424;50.956;5.320;2022-09-28T07:48:12;19.00;99.90
29453;DHT22;16424;50.956;5.320;2022-09-28T07:50:41;19.00;99.90
29453;DHT22;16424;50.956;5.320;2022-09-28T07:53:06;19.30;99.90
29453;DHT22;16424;50.956;5.320;2022-09-28T07:55:32;19.40;99.90
29453;DHT22;16424;50.956;5.320;2022-09-28T07:57:59;18.30;99.90
29453;DHT22;16424;50.956;5.320;2022-09-28T08:00:29;18.80;99.90
29453;DHT22;16424;50.956;5.320;2022-09-28T08:02:58;18.80;99.90
29453;DHT22;16424;50.956;5.320;2022-09-28T08:05:24;19.30;99.90
29453;DHT22;16424;50.956;5.320;2022-09-28T08:07:50;19.50;99.90
29453;DHT22;16424;50.956;5.320;2022-09-28T08:10:17;19.20;99.90
29453;DHT22;16424;50.956;5.320;2022-09-28T08:12:43;19.20;99.90
29453;DHT22;16424;50.956;5.320;2022-09-28T08:15:10;19.60;99.90
29453;DHT22;16424;50.956;5.320;2022-09-28T08:17:36;20.10;99.90
29453;DHT22;16424;50.956;5.320;2022-09-28T08:20:02;20.10;99.90
29453;DHT22;16424;50.956;5.320;2022-09-28T08:22:46;20.30;99.90
29453;DHT22;16424;50.956;5.320;2022-09-28T08:25:12;20.10;99.90
29453;DHT22;16424;50.956;5.320;2022-09-28T08:27:38;20.00;99.90
29453;DHT22;16424;50.956;5.320;2022-09-28T08:30:04;19.80;99.90
29453;DHT22;16424;50.956;5.320;2022-09-28T08:32:29;20.40;99.90
29453;DHT22;16424;50.956;5.320;2022-09-28T08:34:57;20.40;99.90
29453;DHT22;16424;50.956;5.320;2022-09-28T08:37:22;20.80;99.90
29453;DHT22;16424;50.956;5.320;2022-09-28T08:39:48;20.30;99.90
29453;DHT22;16424;50.956;5.320;2022-09-28T08:44:48;20.30;99.90
29453;DHT22;16424;50.956;5.320;2022-09-28T08:48:02;20.20;99.90
29453;DHT22;16424;50.956;5.320;2022-09-28T08:50:30;19.70;99.90
29453;DHT22;16424;50.956;5.320;2022-09-28T08:53:02;20.00;99.90
29453;DHT22;16424;50.956;5.320;2022-09-28T08:55:32;20.50;99.90
29453;DHT22;16424;50.956;5.320;2022-09-28T09:00:35;21.50;99.90
29453;DHT22;16424;50.956;5.320;2022-09-28T09:03:09;22.10;99.90
29453;DHT22;16424;50.956;5.320;2022-09-28T09:09:04;21.70;99.90
29453;DHT22;16424;50.956;5.320;2022-09-28T09:11:46;20.60;99.90
29453;DHT22;16424;50.956;5.320;2022-09-28T09:22:46;19.90;99.90
29453;DHT22;16424;50.956;5.320;2022-09-28T09:25:25;20.10;99.90
29453;DHT22;16424;50.956;5.320;2022-09-28T09:30:50;20.40;99.90
29453;DHT22;16424;50.956;5.320;2022-09-28T09:36:38;20.40;99.90
29453;DHT22;16424;50.956;5.320;2022-09-28T09:47:29;19.70;99.90
29453;DHT22;16424;50.956;5.320;2022-09-28T09:50:24;18.60;99.90
29453;DHT22;16424;50.956;5.320;2022-09-28T09:53:18;18.80;99.90
29453;DHT22;16424;50.956;5.320;2022-09-28T09:55:49;18.90;99.90
29453;DHT22;16424;50.956;5.320;2022-09-28T09:58:36;19.30;99.90
29453;DHT22;16424;50.956;5.320;2022-09-28T10:01:13;19.60;99.90
29453;DHT22;16424;50.956;5.320;2022-09-28T10:03:42;19.60;99.90
29453;DHT22;16424;50.956;5.320;2022-09-28T10:06:24;19.40;99.90
29453;DHT22;16424;50.956;5.320;2022-09-28T10:09:00;18.70;99.90
29453;DHT22;16424;50.956;5.320;2022-09-28T10:11:31;18.50;99.90
29453;DHT22;16424;50.956;5.320;2022-09-28T10:13:58;18.40;99.90
29453;DHT22;16424;50.956;5.320;2022-09-28T10:16:24;18.20;99.90
29453;DHT22;16424;50.956;5.320;2022-09-28T10:18:50;18.00;99.90
29453;DHT22;16424;50.956;5.320;2022-09-28T10:21:19;18.00;99.90
29453;DHT22;16424;50.956;5.320;2022-09-28T10:23:49;17.60;99.90
29453;DHT22;16424;50.956;5.320;2022-09-28T10:26:23;17.40;99.90
29453;DHT22;16424;50.956;5.320;2022-09-28T10:29:00;17.20;99.90
29453;DHT22;16424;50.956;5.320;2022-09-28T10:31:43;17.20;99.90
29453;DHT22;16424;50.956;5.320;2022-09-28T10:34:12;17.50;99.90
29453;DHT22;16424;50.956;5.320;2022-09-28T10:36:51;17.50;99.90
29453;DHT22;16424;50.956;5.320;2022-09-28T10:41:52;17.40;99.90
29453;DHT22;16424;50.956;5.320;2022-09-28T10:44:19;17.40;99.90
29453;DHT22;16424;50.956;5.320;2022-09-28T10:46:58;17.30;99.90
29453;DHT22;16424;50.956;5.320;2022-09-28T10:49:25;17.40;99.90
29453;DHT22;16424;50.956;5.320;2022-09-28T10:51:54;17.60;99.90
29453;DHT22;16424;50.956;5.320;2022-09-28T10:54:22;17.60;99.90
29453;DHT22;16424;50.956;5.320;2022-09-28T10:56:49;17.40;99.90
29453;DHT22;16424;50.956;5.320;2022-09-28T11:02:13;17.20;99.90
29453;DHT22;16424;50.956;5.320;2022-09-28T11:04:52;17.30;99.90
29453;DHT22;16424;50.956;5.320;2022-09-28T11:07:30;17.60;99.90
29453;DHT22;16424;50.956;5.320;2022-09-28T11:09:56;17.80;99.90
29453;DHT22;16424;50.956;5.320;2022-09-28T11:12:35;17.90;99.90
29453;DHT22;16424;50.956;5.320;2022-09-28T11:15:03;17.60;99.90
29453;DHT22;16424;50.956;5.320;2022-09-28T11:17:36;17.30;99.90
29453;DHT22;16424;50.956;5.320;2022-09-28T11:22:55;17.00;99.90
29453;DHT22;16424;50.956;5.320;2022-09-28T11:25:23;16.90;99.90
29453;DHT22;16424;50.956;5.320;2022-09-28T11:30:22;17.20;99.90
29453;DHT22;16424;50.956;5.320;2022-09-28T11:32:48;17.20;99.90
29453;DHT22;16424;50.956;5.320;2022-09-28T11:35:24;17.40;99.90
29453;DHT22;16424;50.956;5.320;2022-09-28T11:46:11;16.80;99.90
29453;DHT22;16424;50.956;5.320;2022-09-28T11:48:43;16.40;99.90
29453;DHT22;16424;50.956;5.320;2022-09-28T11:51:26;16.30;99.90
29453;DHT22;16424;50.956;5.320;2022-09-28T11:54:00;16.20;99.90
29453;DHT22;16424;50.956;5.320;2022-09-28T11:56:43;16.30;99.90
29453;DHT22;16424;50.956;5.320;2022-09-28T11:59:34;16.40;99.90
29453;DHT22;16424;50.956;5.320;2022-09-28T12:02:02;16.50;99.90
29453;DHT22;16424;50.956;5.320;2022-09-28T12:04:38;16.50;99.90
29453;DHT22;16424;50.956;5.320;2022-09-28T12:07:23;16.70;99.90
29453;DHT22;16424;50.956;5.320;2022-09-28T12:09:57;16.90;99.90
29453;DHT22;16424;50.956;5.320;2022-09-28T12:12:32;16.90;99.90
29453;DHT22;16424;50.956;5.320;2022-09-28T12:15:03;16.80;99.90
29453;DHT22;16424;50.956;5.320;2022-09-28T12:17:35;16.60;99.90
29453;DHT22;16424;50.956;5.320;2022-09-28T12:22:38;16.80;99.90
29453;DHT22;16424;50.956;5.320;2022-09-28T12:25:10;17.00;99.90
29453;DHT22;16424;50.956;5.320;2022-09-28T12:27:46;17.20;99.90
29453;DHT22;16424;50.956;5.320;2022-09-28T12:30:17;17.40;99.90
29453;DHT22;16424;50.956;5.320;2022-09-28T12:32:55;17.50;99.90
29453;DHT22;16424;50.956;5.320;2022-09-28T12:41:03;17.30;99.90
29453;DHT22;16424;50.956;5.320;2022-09-28T12:43:53;17.40;99.90
29453;DHT22;16424;50.956;5.320;2022-09-28T12:46:27;17.10;99.90
29453;DHT22;16424;50.956;5.320;2022-09-28T12:51:46;16.50;99.90
29453;DHT22;16424;50.956;5.320;2022-09-28T13:00:30;15.30;99.90
29453;DHT22;16424;50.956;5.320;2022-09-28T13:03:26;15.30;99.90
29453;DHT22;16424;50.956;5.320;2022-09-28T13:25:39;15.60;99.90
29453;DHT22;16424;50.956;5.320;2022-09-28T13:28:05;15.50;99.90
29453;DHT22;16424;50.956;5.320;2022-09-28T13:30:33;15.50;99.90
29453;DHT22;16424;50.956;5.320;2022-09-28T13:33:02;15.60;99.90
29453;DHT22;16424;50.956;5.320;2022-09-28T13:35:28;15.60;99.90
29453;DHT22;16424;50.956;5.320;2022-09-28T13:51:20;16.40;99.90
29453;DHT22;16424;50.956;5.320;2022-09-28T13:59:29;16.80;99.90
29453;DHT22;16424;50.956;5.320;2022-09-28T14:02:01;16.20;99.90
29453;DHT22;16424;50.956;5.320;2022-09-28T14:04:59;15.50;99.90
29453;DHT22;16424;50.956;5.320;2022-09-28T14:10:29;15.10;99.90
29453;DHT22;16424;50.956;5.320;2022-09-28T14:13:08;15.00;99.90
29453;DHT22;16424;50.956;5.320;2022-09-28T14:15:39;15.10;99.90
29453;DHT22;16424;50.956;5.320;2022-09-28T14:18:35;15.10;99.90
29453;DHT22;16424;50.956;5.320;2022-09-28T14:29:31;15.10;99.90
29453;DHT22;16424;50.956;5.320;2022-09-28T14:34:42;14.20;99.90
29453;DHT22;16424;50.956;5.320;2022-09-28T14:37:20;14.10;99.90
29453;DHT22;16424;50.956;5.320;2022-09-28T14:40:57;14.20;99.90
29453;DHT22;16424;50.956;5.320;2022-09-28T14:49:00;14.40;99.90
29453;DHT22;16424;50.956;5.320;2022-09-28T14:56:44;14.60;99.90
29453;DHT22;16424;50.956;5.320;2022-09-28T14:59:17;14.70;99.90
29453;DHT22;16424;50.956;5.320;2022-09-28T15:04:18;14.80;99.90
29453;DHT22;16424;50.956;5.320;2022-09-28T15:06:49;14.80;99.90
29453;DHT22;16424;50.956;5.320;2022-09-28T15:09:35;14.90;99.90
29453;DHT22;16424;50.956;5.320;2022-09-28T15:12:16;15.00;99.90
29453;DHT22;16424;50.956;5.320;2022-09-28T15:17:32;15.20;99.90
29453;DHT22;16424;50.956;5.320;2022-09-28T15:20:08;15.20;99.90
29453;DHT22;16424;50.956;5.320;2022-09-28T15:22:36;15.20;99.90
29453;DHT22;16424;50.956;5.320;2022-09-28T15:25:16;15.30;99.90
29453;DHT22;16424;50.956;5.320;2022-09-28T15:27:45;15.30;99.90
29453;DHT22;16424;50.956;5.320;2022-09-28T15:32:44;15.40;99.90
29453;DHT22;16424;50.956;5.320;2022-09-28T15:35:18;15.40;99.90
29453;DHT22;16424;50.956;5.320;2022-09-28T15:37:45;15.50;99.90
29453;DHT22;16424;50.956;5.320;2022-09-28T15:40:17;15.60;99.90
29453;DHT22;16424;50.956;5.320;2022-09-28T15:42:43;15.90;99.90
29453;DHT22;16424;50.956;5.320;2022-09-28T15:45:22;16.00;99.90
29453;DHT22;16424;50.956;5.320;2022-09-28T15:47:52;16.00;99.90
29453;DHT22;16424;50.956;5.320;2022-09-28T15:50:27;16.00;99.90
29453;DHT22;16424;50.956;5.320;2022-09-28T15:53:00;16.00;99.90
29453;DHT22;16424;50.956;5.320;2022-09-28T15:55:40;16.20;99.90
29453;DHT22;16424;50.956;5.320;2022-09-28T15:58:18;16.30;99.90
29453;DHT22;16424;50.956;5.320;2022-09-28T16:00:46;16.30;99.90
29453;DHT22;16424;50.956;5.320;2022-09-28T16:03:32;16.20;99.90
29453;DHT22;16424;50.956;5.320;2022-09-28T16:08:43;16.40;99.90
29453;DHT22;16424;50.956;5.320;2022-09-28T16:11:34;16.40;99.90
29453;DHT22;16424;50.956;5.320;2022-09-28T16:14:04;16.30;99.90
29453;DHT22;16424;50.956;5.320;2022-09-28T16:16:44;16.00;99.90
29453;DHT22;16424;50.956;5.320;2022-09-28T16:19:24;15.80;99.90
29453;DHT22;16424;50.956;5.320;2022-09-28T16:21:55;15.80;99.90
29453;DHT22;16424;50.956;5.320;2022-09-28T16:24:25;15.60;99.90
29453;DHT22;16424;50.956;5.320;2022-09-28T16:27:20;15.40;99.90
29453;DHT22;16424;50.956;5.320;2022-09-28T16:32:51;15.30;99.90
29453;DHT22;16424;50.956;5.320;2022-09-28T16:35:48;15.20;99.90
29453;DHT22;16424;50.956;5.320;2022-09-28T16:38:15;15.00;99.90
29453;DHT22;16424;50.956;5.320;2022-09-28T16:40:49;14.80;99.90
29453;DHT22;16424;50.956;5.320;2022-09-28T16:43:28;14.70;99.90
29453;DHT22;16424;50.956;5.320;2022-09-28T16:45:57;14.60;99.90
29453;DHT22;16424;50.956;5.320;2022-09-28T16:48:29;14.50;99.90
29453;DHT22;16424;50.956;5.320;2022-09-28T16:50:56;14.50;99.90
29453;DHT22;16424;50.956;5.320;2022-09-28T16:53:22;14.40;99.90
29453;DHT22;16424;50.956;5.320;2022-09-28T16:56:07;14.30;99.90
29453;DHT22;16424;50.956;5.320;2022-09-28T16:58:33;14.20;99.90
29453;DHT22;16424;50.956;5.320;2022-09-28T17:01:00;14.20;99.90
29453;DHT22;16424;50.956;5.320;2022-09-28T17:03:27;14.20;99.90
29453;DHT22;16424;50.956;5.320;2022-09-28T17:05:53;14.10;99.90
29453;DHT22;16424;50.956;5.320;2022-09-28T17:08:21;14.20;99.90
29453;DHT22;16424;50.956;5.320;2022-09-28T17:10:52;14.20;99.90
29453;DHT22;16424;50.956;5.320;2022-09-28T17:13:19;14.30;99.90
29453;DHT22;16424;50.956;5.320;2022-09-28T17:15:46;14.20;99.90
29453;DHT22;16424;50.956;5.320;2022-09-28T17:18:15;14.20;99.90
29453;DHT22;16424;50.956;5.320;2022-09-28T17:20:43;14.00;99.90
29453;DHT22;16424;50.956;5.320;2022-09-28T17:23:10;13.90;99.90
29453;DHT22;16424;50.956;5.320;2022-09-28T17:25:36;13.90;99.90
29453;DHT22;16424;50.956;5.320;2022-09-28T17:28:02;14.00;99.90
29453;DHT22;16424;50.956;5.320;2022-09-28T17:30:29;14.00;99.90
29453;DHT22;16424;50.956;5.320;2022-09-28T17:32:55;14.10;99.90
29453;DHT22;16424;50.956;5.320;2022-09-28T17:35:21;14.10;99.90
29453;DHT22;16424;50.956;5.320;2022-09-28T17:37:47;14.10;99.90
29453;DHT22;16424;50.956;5.320;2022-09-28T17:40:14;14.10;99.90
29453;DHT22;16424;50.956;5.320;2022-09-28T17:42:41;14.10;99.90
29453;DHT22;16424;50.956;5.320;2022-09-28T17:45:07;14.10;99.90
29453;DHT22;16424;50.956;5.320;2022-09-28T17:47:32;14.10;99.90
29453;DHT22;16424;50.956;5.320;2022-09-28T17:49:58;14.10;99.90
29453;DHT22;16424;50.956;5.320;2022-09-28T17:52:23;14.10;99.90
29453;DHT22;16424;50.956;5.320;2022-09-28T17:54:49;14.00;99.90
29453;DHT22;16424;50.956;5.320;2022-09-28T17:57:15;13.90;99.90
29453;DHT22;16424;50.956;5.320;2022-09-28T17:59:41;13.80;99.90
29453;DHT22;16424;50.956;5.320;2022-09-28T18:02:09;13.80;99.90
29453;DHT22;16424;50.956;5.320;2022-09-28T18:04:35;13.70;99.90
29453;DHT22;16424;50.956;5.320;2022-09-28T18:07:01;13.80;99.90
29453;DHT22;16424;50.956;5.320;2022-09-28T18:09:26;13.80;99.90
29453;DHT22;16424;50.956;5.320;2022-09-28T18:11:59;13.80;99.90
29453;DHT22;16424;50.956;5.320;2022-09-28T18:14:25;13.80;99.90
29453;DHT22;16424;50.956;5.320;2022-09-28T18:16:51;13.70;99.90
29453;DHT22;16424;50.956;5.320;2022-09-28T18:19:16;13.70;99.90
29453;DHT22;16424;50.956;5.320;2022-09-28T18:21:42;13.60;99.90
29453;DHT22;16424;50.956;5.320;2022-09-28T18:24:08;13.60;99.90
29453;DHT22;16424;50.956;5.320;2022-09-28T18:26:33;13.50;99.90
29453;DHT22;16424;50.956;5.320;2022-09-28T18:28:59;13.60;99.90
29453;DHT22;16424;50.956;5.320;2022-09-28T18:31:24;13.50;99.90
29453;DHT22;16424;50.956;5.320;2022-09-28T18:33:56;13.50;99.90
29453;DHT22;16424;50.956;5.320;2022-09-28T18:36:30;13.40;99.90
29453;DHT22;16424;50.956;5.320;2022-09-28T18:38:58;13.30;99.90
29453;DHT22;16424;50.956;5.320;2022-09-28T18:41:26;13.20;99.90
29453;DHT22;16424;50.956;5.320;2022-09-28T18:43:52;13.20;99.90
29453;DHT22;16424;50.956;5.320;2022-09-28T18:46:24;13.10;99.90
29453;DHT22;16424;50.956;5.320;2022-09-28T18:48:52;13.00;99.90
29453;DHT22;16424;50.956;5.320;2022-09-28T18:51:19;12.90;99.90
29453;DHT22;16424;50.956;5.320;2022-09-28T18:53:45;12.80;99.90